map of LXR home
LXR - Airport
Location
City:  Luxor, Qina (Qena), Egypt
Name:Luxor International Airport
ICAO:HELX
IATA:LXR

Details
Type:Airport (Aerodrome, Airfield)
Use:Public/Civil, International (customs port of entry)
Latitude:2540'16"N (25.671028)
Longitude:3242'24"E (32.706583)
Datum:other
Elevation:294 ft (90 m)
Variation:4.00E (WMM2015 magnetic declination)
0.08 annual change
Runways:1
Longest:9843 × 148 ft (3000 × 45 m), paved

Time
Time Zone:UTC+2
Local Time:

Weather
METAR:HELX 080800Z 00000KT CAVOK 19/10 Q1022 NOSIG
TAF:HELX 072300Z 0800/0906 33008KT CAVOK
TEMPO 0806/0809 VRB02KT 4000 HZ NSC

Related Locations
Nearby:
Farthest:RVV: 12305 mi / 19803 km
Raivavae, Tubuai Islands, Austral Islands, PF

Find:

   beyond  
but within

Other Information
Maps:
NOTAMs:
Links:
Sources:

  
flag of Egypt
flag of Qina (Qena)
  

Sectional Chart

Flight Planning
at skyvector.com

Satellite Image

Google Maps Satellite view

 

Copyright © 2004-2016 Karl L. Swartz. All rights reserved.
The Great Circle Mapper name and logo are trademarks of the Great Circle Mapper.
All other trademarks mentioned herein belong to their respective owners.
Please see credits for attibutions and further copyright information.

  Follow gcmap on Facebook Follow gcmap on Twitter Follow gcmap on Google+ GCmap on LinkedIn

hCard Microformat

Geo Microformat